createdAt,value
2023-03-05T00:00:51.468Z,7.87
2023-03-05T00:03:18.984Z,7.84
2023-03-05T00:05:45.690Z,7.84
2023-03-05T00:08:12.396Z,7.74
2023-03-05T00:10:39.169Z,7.85
2023-03-05T00:13:06.224Z,7.82
2023-03-05T00:15:32.927Z,7.85
2023-03-05T00:17:59.624Z,7.75
2023-03-05T00:20:26.334Z,7.59
2023-03-05T00:22:53.176Z,7.36
2023-03-05T00:25:20.018Z,7.37
2023-03-05T00:27:46.655Z,7.47
2023-03-05T00:30:13.763Z,7.59
2023-03-05T00:32:41.474Z,7.58
2023-03-05T00:35:08.913Z,7.51
2023-03-05T00:37:35.672Z,7.49
2023-03-05T00:40:04.041Z,7.50
2023-03-05T00:42:30.950Z,7.20
2023-03-05T00:44:57.672Z,7.05
2023-03-05T00:47:24.490Z,7.18
2023-03-05T00:49:51.479Z,7.16
2023-03-05T00:52:18.200Z,7.15
2023-03-05T00:54:45.455Z,7.02
2023-03-05T00:57:12.890Z,7.09
2023-03-05T00:59:39.563Z,7.06
2023-03-05T01:02:06.468Z,7.15
2023-03-05T01:04:33.962Z,7.14
2023-03-05T01:07:00.634Z,6.79
2023-03-05T01:09:27.441Z,6.76
2023-03-05T01:11:54.659Z,6.58
2023-03-05T01:14:21.827Z,6.28
2023-03-05T01:16:48.495Z,6.40
2023-03-05T01:19:16.186Z,6.31
2023-03-05T01:21:43.048Z,6.14
2023-03-05T01:24:09.873Z,6.24
2023-03-05T01:26:36.539Z,6.28
2023-03-05T01:29:04.430Z,6.14
2023-03-05T01:31:31.201Z,6.22
2023-03-05T01:34:00.247Z,6.20
2023-03-05T01:36:26.919Z,6.34
2023-03-05T01:38:53.747Z,6.18
2023-03-05T01:41:21.376Z,6.29
2023-03-05T01:43:49.345Z,6.28
2023-03-05T01:46:28.294Z,6.23
2023-03-05T01:49:02.813Z,6.04
2023-03-05T01:51:35.674Z,5.94
2023-03-05T01:54:03.471Z,5.67
2023-03-05T01:56:31.126Z,5.70
2023-03-05T01:59:03.748Z,5.89
2023-03-05T02:01:34.038Z,5.89
2023-03-05T02:04:01.608Z,5.75
2023-03-05T02:06:29.122Z,5.96
2023-03-05T02:08:56.223Z,5.97
2023-03-05T02:11:23.274Z,5.97
2023-03-05T02:13:50.483Z,5.59
2023-03-05T02:16:17.303Z,5.49
2023-03-05T02:18:44.278Z,5.36
2023-03-05T02:21:11.427Z,5.41
2023-03-05T02:23:39.252Z,5.57
2023-03-05T02:26:09.374Z,5.57
2023-03-05T02:28:37.611Z,5.52
2023-03-05T02:31:11.665Z,5.46
2023-03-05T02:33:38.887Z,5.53
2023-03-05T02:36:06.223Z,5.42
2023-03-05T02:38:33.405Z,5.34
2023-03-05T02:41:00.155Z,5.23
2023-03-05T02:43:26.921Z,5.26
2023-03-05T02:45:53.631Z,5.49
2023-03-05T02:48:20.387Z,5.48
2023-03-05T02:50:48.176Z,5.43
2023-03-05T02:53:14.942Z,5.65
2023-03-05T02:55:41.826Z,5.56
2023-03-05T02:58:08.477Z,5.55
2023-03-05T03:00:35.275Z,5.49
2023-03-05T03:03:02.118Z,5.64
2023-03-05T03:05:28.785Z,5.59
2023-03-05T03:07:55.921Z,5.55
2023-03-05T03:10:22.680Z,5.34
2023-03-05T03:12:49.400Z,5.03
2023-03-05T03:15:17.397Z,5.12
2023-03-05T03:17:44.668Z,5.31
2023-03-05T03:20:14.171Z,5.28
2023-03-05T03:22:42.163Z,5.47
2023-03-05T03:25:09.522Z,5.41
2023-03-05T03:27:36.485Z,5.40
2023-03-05T03:30:04.976Z,5.14
2023-03-05T03:32:35.184Z,5.27
2023-03-05T03:35:02.179Z,5.24
2023-03-05T03:37:31.158Z,5.26
2023-03-05T03:39:58.135Z,5.21
2023-03-05T03:42:25.515Z,4.99
2023-03-05T03:44:52.641Z,5.09
2023-03-05T03:47:19.714Z,4.93
2023-03-05T03:49:46.563Z,4.90
2023-03-05T03:52:13.504Z,5.13
2023-03-05T03:54:41.283Z,5.21
2023-03-05T03:57:08.876Z,4.99
2023-03-05T03:59:35.524Z,5.07
2023-03-05T04:02:02.234Z,5.12
2023-03-05T04:04:30.417Z,5.23
2023-03-05T04:06:57.581Z,5.32
2023-03-05T04:09:24.511Z,5.51
2023-03-05T04:11:51.197Z,5.62
2023-03-05T04:14:17.952Z,5.35
2023-03-05T04:16:44.835Z,5.38
2023-03-05T04:19:11.622Z,5.35
2023-03-05T04:21:38.287Z,5.04
2023-03-05T04:24:05.405Z,4.84
2023-03-05T04:26:32.195Z,5.10
2023-03-05T04:28:58.848Z,5.12
2023-03-05T04:31:26.536Z,5.22
2023-03-05T04:33:53.337Z,5.40
2023-03-05T04:36:20.414Z,5.32
2023-03-05T04:38:47.233Z,5.14
2023-03-05T04:41:14.209Z,5.32
2023-03-05T04:43:40.905Z,5.32
2023-03-05T04:46:07.932Z,5.48
2023-03-05T04:48:34.623Z,4.97
2023-03-05T04:51:01.289Z,4.98
2023-03-05T04:53:28.137Z,4.70
2023-03-05T04:55:55.810Z,4.51
2023-03-05T04:58:23.883Z,4.28
2023-03-05T05:00:50.605Z,4.33
2023-03-05T05:03:17.379Z,4.14
2023-03-05T05:05:44.052Z,3.77
2023-03-05T05:08:12.656Z,3.83
2023-03-05T05:10:40.235Z,3.78
2023-03-05T05:13:07.264Z,3.58
2023-03-05T05:15:34.087Z,3.57
2023-03-05T05:18:01.532Z,3.23
2023-03-05T05:20:28.251Z,3.15
2023-03-05T05:22:54.966Z,3.10
2023-03-05T05:25:22.187Z,3.09
2023-03-05T05:27:49.663Z,3.19
2023-03-05T05:30:16.440Z,3.35
2023-03-05T05:32:43.219Z,3.68
2023-03-05T05:35:10.663Z,3.99
2023-03-05T05:37:37.333Z,4.19
2023-03-05T05:40:05.822Z,4.41
2023-03-05T05:42:33.172Z,4.44
2023-03-05T05:45:00.256Z,4.10
2023-03-05T05:47:26.992Z,3.96
2023-03-05T05:49:53.648Z,3.96
2023-03-05T05:52:21.090Z,4.24
2023-03-05T05:54:48.551Z,4.46
2023-03-05T05:57:15.329Z,4.58
2023-03-05T05:59:42.115Z,4.83
2023-03-05T06:02:09.368Z,4.85
2023-03-05T06:04:36.168Z,5.19
2023-03-05T06:07:03.743Z,5.00
2023-03-05T06:09:31.391Z,5.23
2023-03-05T06:11:58.055Z,5.38
2023-03-05T06:14:24.890Z,5.58
2023-03-05T06:16:52.159Z,5.49
2023-03-05T06:19:18.948Z,5.34
2023-03-05T06:21:45.671Z,5.61
2023-03-05T06:24:13.095Z,5.22
2023-03-05T06:26:39.949Z,5.33
2023-03-05T06:29:06.693Z,5.41
2023-03-05T06:31:36.165Z,5.27
2023-03-05T06:34:04.998Z,5.26
2023-03-05T06:36:33.447Z,5.39
2023-03-05T06:39:00.115Z,5.32
2023-03-05T06:41:29.444Z,5.34
2023-03-05T06:43:56.802Z,5.74
2023-03-05T06:46:26.661Z,5.71
2023-03-05T06:48:56.101Z,5.81
2023-03-05T06:51:26.066Z,6.11
2023-03-05T06:53:54.516Z,6.14
2023-03-05T06:56:21.830Z,6.87
2023-03-05T06:58:51.391Z,7.30
2023-03-05T07:01:19.343Z,7.65
2023-03-05T07:03:49.916Z,7.54
2023-03-05T07:06:16.703Z,8.28
2023-03-05T07:08:44.995Z,8.49
2023-03-05T07:11:13.692Z,8.87
2023-03-05T07:13:40.857Z,8.96
2023-03-05T07:16:14.961Z,8.95
2023-03-05T07:18:41.722Z,8.64
2023-03-05T07:21:10.124Z,8.68
2023-03-05T07:23:37.956Z,8.45
2023-03-05T07:26:07.475Z,8.10
2023-03-05T07:28:35.320Z,7.60
2023-03-05T07:31:07.873Z,7.49
2023-03-05T07:33:37.754Z,7.66
2023-03-05T07:36:07.369Z,7.61
2023-03-05T07:38:34.418Z,7.60
2023-03-05T07:41:09.523Z,7.89
2023-03-05T07:43:36.333Z,8.27
2023-03-05T07:46:08.952Z,8.56
2023-03-05T07:48:36.586Z,8.79
2023-03-05T07:51:15.934Z,9.13
2023-03-05T07:53:43.383Z,9.74
2023-03-05T13:57:04.506Z,14.79
2023-03-05T13:59:34.048Z,14.60
2023-03-05T14:02:03.923Z,14.73
2023-03-05T14:04:35.849Z,14.68
2023-03-05T14:07:31.757Z,14.22
2023-03-05T14:09:59.962Z,14.28
2023-03-05T14:12:36.105Z,14.74
2023-03-05T14:15:07.411Z,14.55
2023-03-05T14:17:42.508Z,14.55
2023-03-05T14:20:31.099Z,14.05
2023-03-05T14:23:00.175Z,13.85
2023-03-05T14:25:40.767Z,13.60
2023-03-05T14:28:26.335Z,14.19
2023-03-05T14:30:56.169Z,14.48
2023-03-05T14:33:28.103Z,14.54
2023-03-05T14:35:56.007Z,14.59
2023-03-05T14:38:26.398Z,14.31
2023-03-05T14:40:53.854Z,14.80
2023-03-05T14:43:20.735Z,14.87
2023-03-05T14:45:48.101Z,14.60
2023-03-05T14:48:19.076Z,14.42
2023-03-05T14:50:56.986Z,14.15
2023-03-05T14:53:29.769Z,14.06
2023-03-05T14:55:57.355Z,13.69
2023-03-05T14:58:29.623Z,13.62
2023-03-05T15:00:57.107Z,13.56
2023-03-05T15:03:25.017Z,13.30
2023-03-05T15:05:54.603Z,13.22
2023-03-05T15:08:25.659Z,13.43
2023-03-05T15:10:52.948Z,13.48
2023-03-05T15:13:19.828Z,13.49
2023-03-05T15:15:48.133Z,13.61
2023-03-05T15:18:18.690Z,13.60
2023-03-05T15:20:48.960Z,13.38
2023-03-05T15:23:16.273Z,13.47
2023-03-05T15:25:43.369Z,13.40
2023-03-05T15:28:10.184Z,13.31
2023-03-05T15:30:39.771Z,13.72
2023-03-05T15:33:13.088Z,13.67
2023-03-05T15:35:41.174Z,12.93
2023-03-05T15:38:08.362Z,13.47
2023-03-05T15:40:35.150Z,13.44
2023-03-05T15:43:01.865Z,13.17
2023-03-05T15:45:31.396Z,13.20
2023-03-05T15:47:58.455Z,13.22
2023-03-05T15:50:25.244Z,13.02
2023-03-05T15:52:52.291Z,13.05
2023-03-05T15:55:19.057Z,12.99
2023-03-05T15:57:48.218Z,12.87
2023-03-05T16:00:17.644Z,12.82
2023-03-05T16:02:44.480Z,13.14
2023-03-05T16:05:11.361Z,13.20
2023-03-05T16:07:42.139Z,13.24
2023-03-05T16:10:13.797Z,13.51
2023-03-05T16:12:43.208Z,13.51
2023-03-05T16:15:17.429Z,13.51
2023-03-05T16:17:47.493Z,13.40
2023-03-05T16:20:15.346Z,13.46
2023-03-05T16:22:42.287Z,13.58
2023-03-05T16:25:09.344Z,13.32
2023-03-05T16:27:36.790Z,13.34
2023-03-05T16:30:05.091Z,13.08
2023-03-05T16:32:31.834Z,12.99
2023-03-05T16:34:58.732Z,13.25
2023-03-05T16:37:26.189Z,12.84
2023-03-05T16:39:52.905Z,12.60
2023-03-05T16:42:19.605Z,12.15
2023-03-05T16:44:47.675Z,12.20
2023-03-05T16:47:15.392Z,12.07
2023-03-05T16:49:43.498Z,11.90
2023-03-05T16:52:18.629Z,11.82
2023-03-05T16:54:46.908Z,11.95
2023-03-05T16:57:14.072Z,11.90
2023-03-05T16:59:41.078Z,11.95
2023-03-05T17:02:08.135Z,11.83
2023-03-05T17:04:35.465Z,11.55
2023-03-05T17:07:04.181Z,11.57
2023-03-05T17:09:31.029Z,11.42
2023-03-05T17:11:57.878Z,11.20
2023-03-05T17:14:24.974Z,11.17
2023-03-05T17:16:52.013Z,11.14
2023-03-05T17:19:19.043Z,11.08
2023-03-05T17:21:46.045Z,11.08
2023-03-05T17:24:12.862Z,11.07
2023-03-05T17:26:39.945Z,10.90
2023-03-05T17:29:07.620Z,10.80
2023-03-05T17:31:34.631Z,10.86
2023-03-05T17:34:01.791Z,10.68
2023-03-05T17:36:28.430Z,10.68
2023-03-05T17:38:55.220Z,10.63
2023-03-05T17:41:22.727Z,10.56
2023-03-05T17:43:50.901Z,10.58
2023-03-05T17:46:17.796Z,10.61
2023-03-05T17:48:44.589Z,10.56
2023-03-05T17:51:13.349Z,10.61
2023-03-05T17:53:40.825Z,10.33
2023-03-05T17:56:12.913Z,10.52
2023-03-05T17:58:40.567Z,10.44
2023-03-05T18:01:08.736Z,10.40
2023-03-05T18:03:36.693Z,10.38
2023-03-05T18:06:05.106Z,10.48
2023-03-05T18:08:32.096Z,10.36
2023-03-05T18:10:58.955Z,10.19
2023-03-05T18:13:25.635Z,10.26
2023-03-05T18:15:52.476Z,10.21
2023-03-05T18:18:19.356Z,10.14
2023-03-05T18:20:46.256Z,10.00
2023-03-05T18:23:13.297Z,10.09
2023-03-05T18:25:40.610Z,10.09
2023-03-05T18:28:10.428Z,10.16
2023-03-05T18:30:37.848Z,9.97
2023-03-05T18:33:05.114Z,10.02
2023-03-05T18:35:33.728Z,9.94
2023-03-05T18:38:01.198Z,9.91
2023-03-05T18:40:30.312Z,9.86
2023-03-05T18:42:59.857Z,9.74
2023-03-05T18:45:26.685Z,9.78
2023-03-05T18:47:54.509Z,9.79
2023-03-05T18:50:23.602Z,9.81
2023-03-05T18:52:50.532Z,9.69
2023-03-05T18:55:19.250Z,9.76
2023-03-05T18:57:46.502Z,9.71
2023-03-05T19:00:16.150Z,9.74
2023-03-05T19:02:43.606Z,9.74
2023-03-05T19:05:11.224Z,9.67
2023-03-05T19:07:38.620Z,9.60
2023-03-05T19:10:07.819Z,9.37
2023-03-05T19:13:15.416Z,9.29
2023-03-05T19:15:42.703Z,9.07
2023-03-05T19:18:09.864Z,8.89
2023-03-05T19:20:36.916Z,8.61
2023-03-05T19:23:03.936Z,8.37
2023-03-05T19:25:30.813Z,8.33
2023-03-05T19:27:57.489Z,8.42
2023-03-05T19:30:24.276Z,8.47
2023-03-05T19:32:52.682Z,8.34
2023-03-05T19:35:19.905Z,8.51
2023-03-05T19:37:46.801Z,8.40
2023-03-05T19:40:15.273Z,8.32
2023-03-05T19:42:42.014Z,8.32
2023-03-05T19:45:09.860Z,8.39
2023-03-05T19:47:36.898Z,8.45
2023-03-05T19:50:06.202Z,8.49
2023-03-05T19:52:32.918Z,8.33
2023-03-05T19:55:00.133Z,8.25
2023-03-05T19:57:26.896Z,8.22
2023-03-05T19:59:53.981Z,8.16
2023-03-05T20:02:22.034Z,8.13
2023-03-05T20:04:49.691Z,8.12
2023-03-05T20:07:16.825Z,7.93
2023-03-05T20:09:43.695Z,7.90
2023-03-05T20:12:11.014Z,7.84
2023-03-05T20:14:38.192Z,7.78
2023-03-05T20:17:04.942Z,7.73
2023-03-05T20:19:31.811Z,7.71
2023-03-05T20:21:58.527Z,7.84
2023-03-05T20:24:25.241Z,7.83
2023-03-05T20:26:51.949Z,7.92
2023-03-05T20:29:18.941Z,8.06
2023-03-05T20:31:46.198Z,7.97
2023-03-05T20:34:15.993Z,7.89
2023-03-05T20:36:43.038Z,8.06
2023-03-05T20:39:10.305Z,7.74
2023-03-05T20:41:39.240Z,7.69
2023-03-05T20:44:07.864Z,7.68
2023-03-05T20:46:53.305Z,7.56
2023-03-05T20:49:20.502Z,7.51
2023-03-05T20:51:50.177Z,7.59
2023-03-05T20:54:17.311Z,7.53
2023-03-05T20:56:44.305Z,7.43
2023-03-05T20:59:11.267Z,7.54
2023-03-05T21:01:40.412Z,7.61
2023-03-05T21:04:08.460Z,7.49
2023-03-05T21:06:36.046Z,7.57
2023-03-05T21:09:03.478Z,7.71
2023-03-05T21:11:30.153Z,7.73
2023-03-05T21:13:57.136Z,7.63
2023-03-05T21:16:27.302Z,7.58
2023-03-05T21:18:56.044Z,7.06
2023-03-05T21:21:23.681Z,7.40
2023-03-05T21:23:50.580Z,7.40
2023-03-05T21:26:18.071Z,7.36
2023-03-05T21:28:44.773Z,7.59
2023-03-05T21:31:17.563Z,7.57
2023-03-05T21:33:44.709Z,7.53
2023-03-05T21:36:11.393Z,7.62
2023-03-05T21:38:38.073Z,7.56
2023-03-05T21:41:05.536Z,7.78
2023-03-05T21:43:33.532Z,7.79
2023-03-05T21:46:03.221Z,7.90
2023-03-05T21:48:30.477Z,7.88
2023-03-05T21:50:57.456Z,7.86
2023-03-05T21:53:24.704Z,7.74
2023-03-05T21:56:26.433Z,7.96
2023-03-05T21:58:54.054Z,7.90
2023-03-05T22:01:22.042Z,7.83
2023-03-05T22:03:50.142Z,7.78
2023-03-05T22:06:18.786Z,7.90
2023-03-05T22:08:45.951Z,8.09
2023-03-05T22:11:14.662Z,7.99
2023-03-05T22:13:42.540Z,7.96
2023-03-05T22:16:10.186Z,7.85
2023-03-05T22:18:37.493Z,7.89
2023-03-05T22:21:05.035Z,7.98
2023-03-05T22:23:34.583Z,7.92
2023-03-05T22:26:04.690Z,7.99
2023-03-05T22:28:32.860Z,8.02
2023-03-05T22:31:00.202Z,7.87
2023-03-05T22:33:27.596Z,7.87
2023-03-05T22:35:54.547Z,7.76
2023-03-05T22:38:21.982Z,7.73
2023-03-05T22:40:50.111Z,7.77
2023-03-05T22:43:18.994Z,7.68
2023-03-05T22:45:46.443Z,7.75
2023-03-05T22:48:13.775Z,7.46
2023-03-05T22:50:44.039Z,7.54
2023-03-05T22:53:12.177Z,7.61
2023-03-05T22:55:43.308Z,7.43
2023-03-05T22:58:10.356Z,7.50
2023-03-05T23:00:37.945Z,7.38
2023-03-05T23:03:06.556Z,7.43
2023-03-05T23:05:34.809Z,7.41
2023-03-05T23:08:01.985Z,7.36
2023-03-05T23:10:29.611Z,7.47
2023-03-05T23:12:59.000Z,7.61
2023-03-05T23:15:29.024Z,7.49
2023-03-05T23:17:56.618Z,7.39
2023-03-05T23:20:27.261Z,7.44
2023-03-05T23:22:56.377Z,7.42
2023-03-05T23:25:25.957Z,7.10
2023-03-05T23:27:52.962Z,7.43
2023-03-05T23:30:30.284Z,7.37
2023-03-05T23:33:16.510Z,7.27
2023-03-05T23:35:52.398Z,7.29
2023-03-05T23:38:19.272Z,7.15
2023-03-05T23:40:48.464Z,7.44
2023-03-05T23:43:16.598Z,7.51
2023-03-05T23:45:45.123Z,7.37
2023-03-05T23:48:12.335Z,7.55
2023-03-05T23:50:41.485Z,7.50
2023-03-05T23:53:10.615Z,7.40
2023-03-05T23:55:42.727Z,7.30
2023-03-05T23:58:09.726Z,7.29
